Time;durP1;ratioP1;P1;durP2;ratioP2;P2;SDS_P1;SDS_P2;PMS_P1;PMS_P2;Temp;Humidity;BMP_temperature;BMP_pressure;BME280_temperature;BME280_humidity;BME280_pressure;Samples;Min_cycle;Max_cycle;Signal;HPM_P1;HPM_P2
2021/12/06 00:00:40;;;;;;;19.47;6.60;;;;;;;13.80;65.43;101648.13;5055730;28;20137;-60
2021/12/06 00:03:11;;;;;;;19.48;6.97;;;;;;;13.79;65.48;101652.91;5045712;28;20079;-60
2021/12/06 00:05:38;;;;;;;26.30;7.70;;;;;;;13.79;65.53;101655.69;5064942;28;20048;-60
2021/12/06 00:08:05;;;;;;;21.23;6.83;;;;;;;13.80;65.51;101654.56;5060324;28;20427;-60
2021/12/06 00:10:33;;;;;;;23.67;7.73;;;;;;;13.77;65.52;101643.06;5041146;28;20115;-62
2021/12/06 00:13:00;;;;;;;23.53;6.63;;;;;;;13.73;65.49;101632.38;5066961;28;20072;-60
2021/12/06 00:15:31;;;;;;;18.37;7.40;;;;;;;13.85;65.42;101663.03;5066774;28;20052;-60
2021/12/06 00:18:00;;;;;;;20.50;6.97;;;;;;;13.83;65.54;101658.81;5061580;28;20076;-61
2021/12/06 00:20:27;;;;;;;16.07;6.43;;;;;;;13.69;65.78;101633.22;5062204;28;20075;-60
2021/12/06 00:22:54;;;;;;;17.03;5.50;;;;;;;13.72;66.13;101653.16;5058600;28;20094;-59
2021/12/06 00:25:21;;;;;;;30.53;7.47;;;;;;;13.09;65.92;101564.44;5067820;28;20048;-59
2021/12/06 00:27:49;;;;;;;19.57;5.83;;;;;;;13.65;66.24;101654.53;5055688;28;20124;-60
2021/12/06 00:30:16;;;;;;;19.00;6.93;;;;;;;13.61;66.41;101657.03;5060454;28;20058;-59
2021/12/06 00:32:45;;;;;;;33.17;7.47;;;;;;;13.56;66.18;101628.09;5066701;28;20119;-60
2021/12/06 00:35:19;;;;;;;18.27;6.13;;;;;;;13.64;66.12;101633.19;5059795;28;20056;-61
2021/12/06 00:37:58;;;;;;;15.77;7.07;;;;;;;13.66;66.16;101639.38;5055368;28;20131;-59
2021/12/06 00:40:32;;;;;;;22.93;6.53;;;;;;;13.69;65.90;101633.22;5065469;28;20571;-61
2021/12/06 00:43:00;;;;;;;20.47;7.37;;;;;;;13.61;65.78;101614.09;5068959;28;20457;-58
2021/12/06 00:45:27;;;;;;;30.90;7.87;;;;;;;13.63;66.02;101631.50;5060834;28;20083;-60
2021/12/06 00:47:55;;;;;;;17.77;5.83;;;;;;;13.58;65.93;101623.06;5059603;28;20087;-61
2021/12/06 00:50:25;;;;;;;17.07;6.13;;;;;;;13.65;65.92;101632.06;5061911;28;20135;-59
2021/12/06 00:52:52;;;;;;;24.13;7.47;;;;;;;13.58;65.85;101623.91;5072050;28;20597;-61
2021/12/06 00:55:21;;;;;;;21.63;6.07;;;;;;;13.58;65.93;101626.72;5064948;28;20076;-60
2021/12/06 00:57:52;;;;;;;19.27;6.43;;;;;;;13.59;66.24;101619.13;5069934;28;20090;-60
2021/12/06 01:00:24;;;;;;;16.10;4.97;;;;;;;13.63;65.92;101629.53;5065082;28;23564;-59
2021/12/06 01:02:52;;;;;;;23.10;6.23;;;;;;;13.59;66.17;101624.75;5056070;28;20040;-59
2021/12/06 01:05:24;;;;;;;20.37;5.77;;;;;;;13.56;66.36;101619.69;5071698;28;20056;-60
2021/12/06 01:07:54;;;;;;;30.87;6.37;;;;;;;13.60;66.26;101624.47;5050405;28;20135;-58
2021/12/06 01:10:24;;;;;;;20.48;6.05;;;;;;;13.55;66.27;101630.06;5069093;28;20056;-59
2021/12/06 01:12:55;;;;;;;21.90;6.40;;;;;;;13.47;66.23;101603.38;5071406;28;20560;-59
2021/12/06 01:15:23;;;;;;;24.40;6.87;;;;;;;13.55;66.50;101612.41;5057562;28;20492;-61
2021/12/06 01:17:50;;;;;;;27.80;6.40;;;;;;;13.50;66.35;101600.03;5057593;28;20099;-59
2021/12/06 01:20:21;;;;;;;27.97;7.27;;;;;;;13.57;66.41;101588.53;5060949;28;20452;-59
2021/12/06 01:23:14;;;;;;;31.23;6.20;;;;;;;13.50;66.54;101591.63;5064200;28;20132;-60
2021/12/06 01:25:57;;;;;;;19.57;7.30;;;;;;;13.56;66.33;101602.84;5068854;28;20127;-59
2021/12/06 01:41:36;;;;;;;26.20;6.67;;;;;;;13.45;66.78;101601.97;5059518;28;20072;-61
2021/12/06 01:44:08;;;;;;;25.37;5.80;;;;;;;13.39;66.78;101589.03;5064245;28;20144;-60
2021/12/06 01:46:38;;;;;;;19.43;5.33;;;;;;;13.46;66.90;101598.88;5064621;28;20471;-61
2021/12/06 01:49:07;;;;;;;22.17;6.03;;;;;;;13.45;66.69;101588.78;5063508;28;20519;-60
2021/12/06 01:51:34;;;;;;;20.77;6.40;;;;;;;13.43;66.64;101576.97;5064474;28;20083;-61
2021/12/06 01:54:02;;;;;;;21.30;5.33;;;;;;;13.63;66.41;101604.25;5058734;28;20124;-59
2021/12/06 01:56:29;;;;;;;20.90;6.90;;;;;;;13.67;66.22;101611.00;5059629;28;20132;-59
2021/12/06 01:58:56;;;;;;;26.57;4.97;;;;;;;13.69;66.21;101607.94;5052601;28;20041;-60
2021/12/06 02:01:23;;;;;;;19.80;5.53;;;;;;;13.67;66.27;101613.81;5053079;28;20084;-61
2021/12/06 02:03:50;;;;;;;17.87;4.60;;;;;;;13.58;66.17;101589.41;5060981;28;20079;-61
2021/12/06 02:06:18;;;;;;;28.80;6.63;;;;;;;13.73;66.21;101612.72;5063719;28;20052;-60
2021/12/06 02:08:45;;;;;;;21.67;6.30;;;;;;;13.72;66.00;101618.63;5050308;28;20354;-60
2021/12/06 02:11:12;;;;;;;23.17;6.10;;;;;;;13.74;66.12;101621.97;5049421;28;20140;-59
2021/12/06 02:13:50;;;;;;;20.43;4.97;;;;;;;13.79;66.05;101632.41;5068330;28;20134;-60
2021/12/06 02:16:21;;;;;;;15.07;3.73;;;;;;;13.61;66.04;101608.50;5051806;28;20135;-60
2021/12/06 02:18:54;;;;;;;15.40;4.23;;;;;;;13.65;66.16;101618.88;5066817;28;20102;-60
2021/12/06 02:21:28;;;;;;;11.73;5.43;;;;;;;13.55;66.26;101612.41;5066985;28;20535;-54
2021/12/06 02:23:56;;;;;;;17.90;7.03;;;;;;;13.42;66.45;101624.97;5064411;28;20149;-56
2021/12/06 02:26:23;;;;;;;22.83;8.57;;;;;;;13.04;67.12;101616.59;5055389;28;20129;-56
2021/12/06 02:28:51;;;;;;;21.53;8.47;;;;;;;12.85;67.59;101623.75;5074307;28;20068;-57
2021/12/06 02:31:21;;;;;;;18.80;8.60;;;;;;;12.70;67.80;101623.66;5074865;28;20511;-57
2021/12/06 02:33:49;;;;;;;21.23;9.17;;;;;;;12.60;68.16;101637.59;5057443;28;20071;-60
2021/12/06 02:36:17;;;;;;;32.23;9.83;;;;;;;12.50;68.23;101625.16;5059434;28;20044;-59
2021/12/06 02:38:46;;;;;;;18.10;9.47;;;;;;;12.43;68.34;101624.53;5069189;28;20052;-60
2021/12/06 02:41:14;;;;;;;28.47;9.23;;;;;;;12.37;68.65;101619.16;5062250;28;20047;-60
2021/12/06 02:43:42;;;;;;;23.67;10.13;;;;;;;12.34;68.91;101637.34;5071216;28;20080;-60
2021/12/06 02:46:09;;;;;;;16.37;9.13;;;;;;;12.33;68.95;101646.88;5067828;28;20064;-59
2021/12/06 02:48:36;;;;;;;18.53;8.70;;;;;;;12.27;69.19;101636.72;5075572;28;20090;-58
2021/12/06 02:51:05;;;;;;;26.13;9.17;;;;;;;12.20;69.11;101613.69;5066454;28;20052;-59
2021/12/06 02:53:34;;;;;;;22.30;8.80;;;;;;;12.29;69.00;101637.31;5071739;28;20060;-58
2021/12/06 02:56:16;;;;;;;13.90;7.50;;;;;;;12.31;68.80;101627.53;5046659;28;20514;-59
2021/12/06 02:58:56;;;;;;;20.97;8.60;;;;;;;12.41;68.68;101632.41;5068171;28;20105;-62
2021/12/06 03:01:25;;;;;;;;;;;;;;;12.46;68.72;101629.63;5070925;28;20468;-61
2021/12/06 03:03:52;;;;;;;26.93;7.33;;;;;;;12.42;68.51;101627.63;5069852;28;19935;-61
2021/12/06 03:06:20;;;;;;;21.57;7.50;;;;;;;12.47;68.54;101633.25;5070588;28;20079;-61
2021/12/06 03:08:54;;;;;;;22.90;7.30;;;;;;;12.44;68.70;101626.22;5060378;28;20234;-61
2021/12/06 03:11:52;;;;;;;13.10;6.47;;;;;;;12.45;68.81;101627.94;5047658;28;20551;-60
2021/12/06 03:14:31;;;;;;;21.80;6.33;;;;;;;12.44;68.56;101626.22;5048229;28;20072;-59
2021/12/06 03:17:00;;;;;;;18.03;6.40;;;;;;;12.42;68.80;101622.88;5070748;28;20536;-60
2021/12/06 03:19:27;;;;;;;22.93;6.80;;;;;;;12.40;68.71;101613.88;5065031;28;20052;-60
2021/12/06 03:21:54;;;;;;;12.57;5.97;;;;;;;12.39;68.75;101622.56;5073584;28;20076;-60
2021/12/06 03:24:21;;;;;;;13.50;6.93;;;;;;;12.44;68.86;101617.81;5065600;28;20077;-59
2021/12/06 03:26:50;;;;;;;14.93;6.33;;;;;;;12.51;68.60;101618.47;5064222;28;20128;-60
2021/12/06 03:29:17;;;;;;;20.80;7.57;;;;;;;12.53;68.66;101613.44;5051509;28;20484;-59
2021/12/06 03:31:46;;;;;;;11.17;5.97;;;;;;;12.51;68.59;101610.06;5063130;28;20136;-60
2021/12/06 03:34:16;;;;;;;14.18;6.00;;;;;;;12.51;68.54;101621.28;5054345;28;20102;-55
2021/12/06 03:36:43;;;;;;;11.87;5.33;;;;;;;12.42;68.55;101611.66;5061407;28;20143;-59
2021/12/06 03:39:23;;;;;;;18.33;6.10;;;;;;;12.39;68.90;101609.41;5071686;28;20068;-59
2021/12/06 03:41:58;;;;;;;17.92;5.97;;;;;;;12.41;68.80;101632.41;5057611;28;20067;-59
2021/12/06 03:44:25;;;;;;;17.47;5.27;;;;;;;12.49;68.83;101622.66;5050388;28;20135;-58
2021/12/06 03:47:04;;;;;;;14.80;5.77;;;;;;;12.50;68.74;101636.38;5059448;28;20079;-64
2021/12/06 03:49:31;;;;;;;12.23;5.03;;;;;;;12.43;68.53;101613.34;5069190;28;20131;-58
2021/12/06 03:51:58;;;;;;;16.27;5.87;;;;;;;12.45;68.73;101619.53;5073802;28;20109;-58
2021/12/06 03:54:27;;;;;;;12.57;5.53;;;;;;;12.40;68.78;101615.84;5048600;28;20126;-57
2021/12/06 03:56:55;;;;;;;21.23;6.33;;;;;;;12.34;68.88;101614.94;5069637;28;20127;-58
2021/12/06 03:59:23;;;;;;;18.90;5.97;;;;;;;12.30;68.83;101613.78;5063882;28;20131;-58
2021/12/06 04:01:51;;;;;;;13.57;6.27;;;;;;;12.13;68.95;101591.50;5067268;28;20102;-60
2021/12/06 04:04:18;;;;;;;17.77;6.13;;;;;;;12.22;68.95;101611.47;5064380;28;20044;-61
2021/12/06 04:06:46;;;;;;;13.77;5.90;;;;;;;12.27;68.70;101614.31;5069645;28;20090;-60
2021/12/06 04:09:14;;;;;;;20.67;6.37;;;;;;;12.31;68.42;101619.13;5059826;28;20049;-58
2021/12/06 04:11:41;;;;;;;23.43;6.80;;;;;;;12.40;68.33;101618.63;5049066;28;20139;-57
2021/12/06 04:14:08;;;;;;;17.73;6.80;;;;;;;12.39;68.13;101601.00;5057871;28;20131;-57
2021/12/06 04:16:36;;;;;;;17.70;6.60;;;;;;;12.55;68.06;101608.41;5063521;28;20558;-59
2021/12/06 04:19:05;;;;;;;15.53;6.70;;;;;;;12.61;67.92;101606.47;5066216;28;20044;-60
2021/12/06 04:21:32;;;;;;;20.30;6.10;;;;;;;12.67;67.67;101612.97;5058359;28;20163;-60
2021/12/06 04:23:59;;;;;;;22.67;6.70;;;;;;;12.66;67.83;101616.91;5060367;28;20041;-60
2021/12/06 04:26:27;;;;;;;17.17;6.23;;;;;;;12.68;67.90;101623.91;5058748;28;20079;-60
2021/12/06 04:29:01;;;;;;;16.60;6.00;;;;;;;12.46;67.69;101582.00;5066742;28;20131;-60
2021/12/06 04:31:33;;;;;;;17.50;6.40;;;;;;;12.67;67.54;101598.97;5063801;28;20099;-60
2021/12/06 04:34:00;;;;;;;19.47;7.33;;;;;;;12.84;67.34;101619.25;5064255;28;20060;-65
2021/12/06 04:36:38;;;;;;;20.30;7.60;;;;;;;12.83;67.42;101608.34;5046417;28;20497;-65
2021/12/06 04:39:07;;;;;;;21.77;6.68;;;;;;;12.62;67.18;101593.34;5067430;28;20052;-65
2021/12/06 04:41:35;;;;;;;18.80;6.20;;;;;;;12.67;67.62;101608.22;5057024;28;20531;-68
2021/12/06 04:44:03;;;;;;;14.97;6.27;;;;;;;12.61;67.61;101612.06;5056150;28;20170;-68
2021/12/06 04:46:30;;;;;;;19.23;6.23;;;;;;;12.45;67.82;101587.88;5059844;28;20416;-68
2021/12/06 04:48:57;;;;;;;18.50;6.87;;;;;;;12.54;67.63;101606.69;5057971;28;20052;-63
2021/12/06 04:51:25;;;;;;;19.07;6.67;;;;;;;12.54;67.57;101608.66;5055856;28;20477;-63
2021/12/06 04:53:52;;;;;;;18.60;6.67;;;;;;;12.44;67.64;101612.22;5070595;28;20131;-63
2021/12/06 04:56:44;;;;;;;18.20;7.27;;;;;;;12.35;67.61;101602.63;5068154;28;20204;-63
2021/12/06 04:59:13;;;;;;;17.40;6.67;;;;;;;12.42;67.49;101616.44;5067212;28;20458;-61
2021/12/06 05:01:41;;;;;;;20.90;6.28;;;;;;;12.22;67.45;101591.88;5066869;28;20047;-61
2021/12/06 05:04:12;;;;;;;16.90;6.63;;;;;;;12.25;67.80;101599.75;5059827;28;20117;-60
2021/12/06 05:06:44;;;;;;;15.87;5.50;;;;;;;12.20;68.25;101619.28;5068242;28;20088;-61
2021/12/06 05:09:18;;;;;;;17.33;5.23;;;;;;;12.04;68.51;101613.56;5063910;28;20135;-61
2021/12/06 05:11:46;;;;;;;9.97;4.67;;;;;;;12.03;68.70;101609.06;5069437;28;20087;-61
2021/12/06 05:14:14;;;;;;;10.50;4.50;;;;;;;11.83;68.96;101570.50;5065161;28;20450;-60
2021/12/06 05:16:41;;;;;;;13.63;4.33;;;;;;;12.00;69.00;101615.19;5063645;28;20179;-59
2021/12/06 05:19:08;;;;;;;9.17;3.63;;;;;;;11.82;69.67;101602.38;5063454;28;20051;-59
2021/12/06 05:21:36;;;;;;;13.53;3.87;;;;;;;11.64;70.50;101616.72;5068402;28;20465;-59
2021/12/06 05:24:06;;;;;;;12.70;3.37;;;;;;;11.40;71.47;101613.34;5068929;28;20472;-59
2021/12/06 05:26:34;;;;;;;14.13;5.53;;;;;;;11.10;72.31;101586.66;5058571;28;20123;-58
2021/12/06 05:29:03;;;;;;;8.93;4.03;;;;;;;10.96;72.56;101576.13;5067127;28;20449;-59
2021/12/06 05:31:30;;;;;;;23.40;6.07;;;;;;;11.03;73.37;101600.00;5054358;28;20145;-58
2021/12/06 05:34:02;;;;;;;8.73;3.30;;;;;;;10.99;73.33;101592.38;5049921;28;20052;-56
2021/12/06 05:36:29;;;;;;;17.17;5.30;;;;;;;11.06;72.96;101599.47;5069252;28;20080;-58
2021/12/06 05:38:57;;;;;;;10.20;5.60;;;;;;;11.07;72.89;101595.56;5068051;28;20076;-58
2021/12/06 05:41:25;;;;;;;18.30;4.80;;;;;;;11.11;72.95;101588.38;5067147;28;20079;-59
2021/12/06 05:43:52;;;;;;;15.53;5.77;;;;;;;11.14;72.63;101593.47;5069080;28;20084;-55
2021/12/06 05:46:19;;;;;;;19.23;5.30;;;;;;;11.17;72.60;101588.44;5063490;28;23074;-56
2021/12/06 05:48:46;;;;;;;8.87;3.40;;;;;;;11.13;72.99;101583.34;5060756;28;20064;-54
2021/12/06 05:51:12;;;;;;;16.20;6.43;;;;;;;11.30;72.73;101599.22;5063609;28;20045;-58
2021/12/06 05:53:39;;;;;;;21.60;4.40;;;;;;;11.28;72.64;101598.63;5054952;28;20132;-56
2021/12/06 05:56:06;;;;;;;11.60;4.43;;;;;;;11.31;72.74;101595.31;5056874;28;20094;-55
2021/12/06 05:58:34;;;;;;;9.37;4.10;;;;;;;11.28;72.54;101595.84;5063644;28;20145;-56
2021/12/06 06:01:02;;;;;;;9.67;5.23;;;;;;;11.19;72.58;101575.06;5070917;28;20090;-58
2021/12/06 06:03:29;;;;;;;13.83;4.90;;;;;;;11.21;72.44;101576.47;5069781;28;20048;-59
2021/12/06 06:05:57;;;;;;;8.93;4.23;;;;;;;11.24;72.61;101580.69;5054329;28;20045;-58
2021/12/06 06:08:25;;;;;;;20.53;6.10;;;;;;;11.30;72.33;101577.72;5072859;28;20441;-61
2021/12/06 06:10:53;;;;;;;13.80;4.77;;;;;;;11.31;72.30;101581.34;5065741;28;20084;-58
2021/12/06 06:13:20;;;;;;;15.43;4.63;;;;;;;11.37;72.10;101583.09;5051365;28;21270;-58
2021/12/06 06:15:50;;;;;;;11.50;4.30;;;;;;;11.41;71.91;101584.25;5045181;28;20404;-59
2021/12/06 06:18:18;;;;;;;;;;;;;;;11.46;72.00;101583.50;5046560;28;20124;-60
2021/12/06 06:20:50;;;;;;;16.03;4.73;;;;;;;11.57;71.28;101582.50;5054688;28;20023;-59
2021/12/06 06:23:21;;;;;;;11.47;4.50;;;;;;;11.63;71.19;101582.31;5055393;28;20156;-63
2021/12/06 06:25:48;;;;;;;13.93;3.13;;;;;;;11.70;71.17;101578.47;5060184;28;20085;-60
2021/12/06 06:28:15;;;;;;;11.93;4.83;;;;;;;11.75;70.92;101587.72;5070477;28;20768;-59
2021/12/06 06:30:42;;;;;;;16.80;4.90;;;;;;;11.77;70.71;101584.69;5065967;28;20132;-60
2021/12/06 06:33:09;;;;;;;11.90;4.33;;;;;;;11.78;70.39;101575.19;5060555;28;20136;-60
2021/12/06 06:35:36;;;;;;;16.10;4.07;;;;;;;11.84;70.40;101579.75;5069729;28;20132;-59
2021/12/06 06:38:04;;;;;;;12.87;4.27;;;;;;;11.93;70.21;101592.19;5043295;28;20040;-59
2021/12/06 06:40:32;;;;;;;12.53;4.10;;;;;;;11.83;70.37;101581.69;5068935;28;20123;-59
2021/12/06 06:42:59;;;;;;;11.97;3.97;;;;;;;11.82;70.21;101579.13;5070164;28;20381;-60
2021/12/06 06:45:26;;;;;;;19.97;4.87;;;;;;;11.96;70.00;101600.00;5061570;28;20075;-59
2021/12/06 06:47:53;;;;;;;12.97;4.23;;;;;;;12.10;69.64;101608.84;5058904;28;20510;-56
2021/12/06 06:50:21;;;;;;;11.40;4.63;;;;;;;12.13;69.28;101590.66;5059224;28;20115;-53
2021/12/06 06:52:50;;;;;;;14.77;4.90;;;;;;;12.22;69.02;101591.88;5045561;28;20076;-57
2021/12/06 06:55:17;;;;;;;14.20;4.25;;;;;;;12.17;69.16;101594.63;5065970;28;20337;-54
2021/12/06 06:57:45;;;;;;;7.37;3.43;;;;;;;11.97;69.39;101582.13;5051802;28;21348;-54
2021/12/06 07:00:20;;;;;;;13.73;3.17;;;;;;;11.76;69.71;101574.59;5049910;28;20485;-58
2021/12/06 07:02:47;;;;;;;12.07;3.60;;;;;;;11.73;69.97;101587.16;5046557;28;20131;-54
2021/12/06 07:05:15;;;;;;;13.83;4.43;;;;;;;11.66;70.34;101591.25;5047460;28;20132;-56
2021/12/06 07:07:42;;;;;;;9.80;3.83;;;;;;;11.61;70.52;101583.66;5058294;28;20131;-55
2021/12/06 07:10:10;;;;;;;13.00;4.30;;;;;;;11.60;70.63;101596.81;5060077;28;20049;-54
2021/12/06 07:12:44;;;;;;;9.03;3.50;;;;;;;11.34;70.53;101550.06;5047790;28;20577;-54
2021/12/06 07:15:15;;;;;;;10.63;4.47;;;;;;;11.53;70.65;101584.97;5049706;28;20072;-55
2021/12/06 07:17:42;;;;;;;;;;;;;;;11.47;71.07;101582.38;5063525;28;20077;-54
2021/12/06 07:20:10;;;;;;;16.47;5.57;;;;;;;11.44;70.77;101580.94;5047955;28;19956;-57
2021/12/06 07:22:37;;;;;;;11.43;4.70;;;;;;;11.37;71.02;101583.09;5051615;28;20103;-56
2021/12/06 07:25:05;;;;;;;19.27;4.97;;;;;;;11.36;71.11;101589.81;5046593;28;20049;-57
2021/12/06 07:27:33;;;;;;;6.20;2.83;;;;;;;11.31;71.33;101589.72;5053783;28;20496;-54
2021/12/06 07:30:00;;;;;;;10.33;2.60;;;;;;;11.26;71.56;101596.13;5045578;28;20501;-54
2021/12/06 07:32:27;;;;;;;6.87;2.80;;;;;;;11.30;71.57;101605.66;5054377;28;20152;-54
2021/12/06 07:34:55;;;;;;;11.77;4.47;;;;;;;11.26;71.81;101598.91;5065366;28;20068;-55
2021/12/06 07:37:22;;;;;;;6.37;3.83;;;;;;;11.24;71.96;101617.03;5051104;28;20438;-55
2021/12/06 07:39:49;;;;;;;8.30;3.13;;;;;;;11.17;71.95;101610.81;5057586;28;20077;-55
2021/12/06 07:42:17;;;;;;;16.63;3.43;;;;;;;11.17;72.16;101616.38;5053259;28;20511;-53
2021/12/06 07:44:44;;;;;;;9.23;4.50;;;;;;;11.12;71.93;101611.59;5054830;28;20132;-54
2021/12/06 07:47:12;;;;;;;10.17;5.00;;;;;;;11.12;71.83;101598.44;5059096;28;20041;-53
2021/12/06 07:49:43;;;;;;;9.37;3.40;;;;;;;11.26;71.86;101620.44;5062169;28;20080;-54
2021/12/06 07:52:25;;;;;;;16.53;5.00;;;;;;;11.13;71.82;101602.94;5073297;28;20098;-54
2021/12/06 07:54:53;;;;;;;19.43;4.10;;;;;;;11.15;72.37;101617.50;5056277;28;20167;-54
2021/12/06 07:57:20;;;;;;;15.33;3.53;;;;;;;11.13;72.55;101618.84;5050611;28;20069;-51
2021/12/06 07:59:47;;;;;;;7.67;2.60;;;;;;;11.11;72.30;101610.75;5045533;28;20076;-55
2021/12/06 08:02:15;;;;;;;10.53;3.97;;;;;;;11.02;72.91;101609.50;5054981;28;20048;-54
2021/12/06 08:04:42;;;;;;;10.17;3.20;;;;;;;11.02;72.99;101603.91;5048156;28;20485;-55
2021/12/06 08:07:09;;;;;;;7.47;3.30;;;;;;;11.00;72.74;101614.47;5056991;28;20048;-54
2021/12/06 08:09:36;;;;;;;11.70;3.60;;;;;;;11.10;72.85;101620.22;5045724;28;20057;-54
2021/12/06 08:12:03;;;;;;;10.90;3.17;;;;;;;11.10;72.72;101610.97;5059483;28;20163;-56
2021/12/06 08:14:30;;;;;;;10.63;2.50;;;;;;;10.96;72.83;101581.72;5065170;28;20075;-51
2021/12/06 08:16:57;;;;;;;18.33;2.90;;;;;;;11.10;72.97;101623.00;5062884;28;20083;-53
2021/12/06 08:19:24;;;;;;;5.03;2.23;;;;;;;11.08;73.16;101624.41;5070921;28;20084;-54
2021/12/06 08:21:51;;;;;;;4.80;2.40;;;;;;;11.05;72.96;101630.50;5055042;28;20441;-54
2021/12/06 08:24:18;;;;;;;9.33;3.43;;;;;;;10.92;73.26;101609.34;5063560;28;20079;-54
2021/12/06 08:26:47;;;;;;;4.97;2.40;;;;;;;11.06;73.10;101633.03;5067246;28;20076;-53
2021/12/06 08:29:16;;;;;;;15.43;4.27;;;;;;;10.96;73.03;101618.91;5073643;28;20045;-52
2021/12/06 08:31:45;;;;;;;3.47;2.13;;;;;;;10.92;72.93;101600.97;5069348;28;20128;-52
2021/12/06 08:34:13;;;;;;;12.73;2.90;;;;;;;11.07;73.41;101634.69;5072488;28;20169;-52
2021/12/06 08:36:40;;;;;;;7.83;4.00;;;;;;;11.04;73.27;101629.66;5065065;28;20111;-52
2021/12/06 08:39:07;;;;;;;6.93;3.53;;;;;;;11.09;73.26;101635.31;5066329;28;20127;-53
2021/12/06 08:41:34;;;;;;;7.20;2.37;;;;;;;11.13;73.19;101630.03;5049298;28;20127;-54
2021/12/06 08:44:01;;;;;;;5.57;3.03;;;;;;;11.21;73.15;101632.38;5055703;28;20048;-53
2021/12/06 08:46:33;;;;;;;3.60;1.97;;;;;;;11.21;73.07;101639.94;5068361;28;20052;-52
2021/12/06 08:49:05;;;;;;;7.80;4.13;;;;;;;11.25;73.22;101641.97;5070263;28;22977;-51
2021/12/06 08:51:47;;;;;;;3.17;1.83;;;;;;;11.28;73.03;101644.25;5069745;28;20048;-53
2021/12/06 08:54:18;;;;;;;6.17;2.60;;;;;;;11.27;73.12;101633.31;5059478;28;20140;-57
2021/12/06 08:56:47;;;;;;;11.90;2.90;;;;;;;11.39;72.48;101631.25;5049734;28;20045;-57
2021/12/06 08:59:16;;;;;;;13.93;4.70;;;;;;;11.51;72.60;101629.16;5049099;28;20049;-57
2021/12/06 09:01:43;;;;;;;10.30;3.73;;;;;;;11.55;72.33;101641.50;5050970;28;20417;-57
2021/12/06 09:04:34;;;;;;;5.97;2.70;;;;;;;11.58;72.17;101631.75;5057767;28;20060;-58
2021/12/06 09:07:09;;;;;;;6.07;2.93;;;;;;;11.60;71.97;101613.59;5058880;28;20130;-60
2021/12/06 09:09:46;;;;;;;14.63;3.87;;;;;;;11.82;71.74;101626.72;5072925;28;20048;-58
2021/12/06 09:12:21;;;;;;;9.07;3.57;;;;;;;11.87;71.57;101617.56;5066016;28;20523;-58
2021/12/06 09:14:48;;;;;;;12.60;4.77;;;;;;;12.03;71.12;101631.47;5052317;28;20527;-55
2021/12/06 09:17:16;;;;;;;8.30;3.60;;;;;;;12.12;71.10;101639.38;5053725;28;20067;-59
2021/12/06 09:19:43;;;;;;;5.23;3.53;;;;;;;12.19;70.92;101628.81;5046266;28;20098;-59
2021/12/06 09:22:10;;;;;;;7.33;3.40;;;;;;;12.19;70.65;101634.41;5058501;28;20068;-61
2021/12/06 09:24:38;;;;;;;9.27;4.57;;;;;;;12.24;70.64;101626.91;5055729;28;20484;-56
2021/12/06 09:27:07;;;;;;;8.90;3.20;;;;;;;12.42;70.63;101628.47;5068614;28;20831;-58
2021/12/06 09:29:36;;;;;;;9.40;3.13;;;;;;;12.60;70.34;101634.78;5065721;28;20542;-62
2021/12/06 09:32:09;;;;;;;8.27;3.30;;;;;;;12.69;69.97;101638.78;5067478;28;20577;-61
2021/12/06 09:34:39;;;;;;;7.77;3.27;;;;;;;12.77;69.71;101641.06;5061409;28;20301;-59
2021/12/06 09:37:07;;;;;;;;;;;;;;;12.72;69.53;101635.44;5064352;28;20060;-59
2021/12/06 09:39:34;;;;;;;8.07;3.00;;;;;;;12.83;69.24;101637.22;5056035;28;20551;-54
2021/12/06 09:42:03;;;;;;;6.53;3.37;;;;;;;12.82;69.27;101638.31;5052655;28;20098;-59
2021/12/06 09:44:30;;;;;;;10.00;3.63;;;;;;;12.84;69.08;101647.28;5064791;28;20048;-54
2021/12/06 09:46:58;;;;;;;10.50;4.03;;;;;;;13.01;69.08;101653.59;5070074;28;20488;-57
2021/12/06 09:49:25;;;;;;;7.20;3.00;;;;;;;13.10;68.60;101645.53;5066745;28;20044;-58
2021/12/06 09:51:57;;;;;;;15.90;4.37;;;;;;;13.23;68.51;101655.38;5059008;28;20513;-58
2021/12/06 09:54:30;;;;;;;8.17;3.60;;;;;;;13.24;68.40;101635.53;5057511;28;20496;-58
2021/12/06 09:56:58;;;;;;;11.63;3.53;;;;;;;13.31;68.53;101649.31;5055235;28;20080;-52
2021/12/06 09:59:32;;;;;;;12.73;3.57;;;;;;;13.29;68.30;101637.50;5064501;28;20044;-57
2021/12/06 10:02:04;;;;;;;;;;;;;;;13.34;68.08;101645.13;5061250;28;20095;-58
2021/12/06 10:04:35;;;;;;;9.13;3.70;;;;;;;13.36;67.97;101654.09;5062323;28;19920;-55
2021/12/06 10:07:02;;;;;;;9.77;4.87;;;;;;;13.37;67.90;101650.19;5058823;28;20454;-54
2021/12/06 10:09:30;;;;;;;6.03;2.87;;;;;;;13.43;67.93;101649.09;5056988;28;20129;-50
2021/12/06 10:11:58;;;;;;;13.50;3.70;;;;;;;13.52;67.73;101659.50;5057083;28;20084;-58
2021/12/06 10:14:25;;;;;;;7.43;3.80;;;;;;;13.51;67.65;101662.63;5066752;28;20044;-59
2021/12/06 10:16:52;;;;;;;11.07;3.60;;;;;;;13.51;67.66;101657.00;5070493;28;20040;-58
2021/12/06 10:19:21;;;;;;;9.87;3.80;;;;;;;13.67;67.63;101655.09;5060555;28;20644;-58
2021/12/06 10:21:48;;;;;;;14.73;4.23;;;;;;;13.70;67.51;101654.53;5054770;28;20130;-58
2021/12/06 10:24:19;;;;;;;14.07;4.13;;;;;;;13.79;67.41;101652.91;5051173;28;20465;-62
2021/12/06 10:26:45;;;;;;;6.57;3.93;;;;;;;13.80;67.30;101670.56;5063838;28;20076;-61
2021/12/06 10:29:20;;;;;;;6.33;3.67;;;;;;;13.80;67.08;101665.81;5063155;28;20063;-66
2021/12/06 10:31:52;;;;;;;12.73;4.10;;;;;;;13.90;67.08;101657.41;5061061;28;20059;-63
2021/12/06 10:34:27;;;;;;;12.63;4.13;;;;;;;13.91;66.97;101655.44;5038982;28;20056;-63
2021/12/06 10:36:55;;;;;;;13.43;4.80;;;;;;;13.97;67.07;101660.81;5064702;28;20053;-64
2021/12/06 10:39:23;;;;;;;9.47;3.97;;;;;;;14.01;66.85;101649.03;5065913;28;20078;-57
2021/12/06 10:41:52;;;;;;;11.80;4.77;;;;;;;13.92;67.28;101658.00;5069024;28;20468;-56
2021/12/06 10:44:20;;;;;;;12.60;5.67;;;;;;;13.70;67.42;101643.31;5065891;28;20083;-58
2021/12/06 10:46:49;;;;;;;13.50;4.97;;;;;;;13.66;67.89;101653.41;5064841;28;20076;-59
2021/12/06 10:49:24;;;;;;;15.75;6.07;;;;;;;13.57;67.95;101635.38;5066819;28;20511;-59
2021/12/06 10:51:52;;;;;;;7.70;4.60;;;;;;;13.52;68.08;101648.28;5061806;28;20787;-59
2021/12/06 10:54:48;;;;;;;11.60;5.00;;;;;;;13.58;68.21;101645.53;5068164;28;20048;-59
2021/12/06 10:57:12;;;;;;;9.70;3.90;;;;;;;13.67;68.44;101641.88;5069216;28;20049;-58
2021/12/06 10:59:39;;;;;;;13.53;5.00;;;;;;;13.52;68.59;101623.03;5056575;28;20123;-59
2021/12/06 11:02:10;;;;;;;16.30;5.83;;;;;;;13.69;68.51;101633.22;5053391;28;20052;-58
2021/12/06 11:04:40;;;;;;;11.60;4.60;;;;;;;13.78;68.47;101628.75;5054829;28;20412;-60
2021/12/06 11:07:09;;;;;;;12.37;4.80;;;;;;;13.84;68.33;101624.81;5068772;28;20048;-55
2021/12/06 11:09:41;;;;;;;9.85;3.80;;;;;;;13.88;68.21;101617.56;5057555;28;20049;-58
2021/12/06 11:12:09;;;;;;;9.07;4.37;;;;;;;13.68;68.04;101593.06;5049377;28;20511;-58
2021/12/06 11:14:42;;;;;;;9.83;4.10;;;;;;;13.80;68.27;101615.28;5055508;28;20119;-59
2021/12/06 11:17:16;;;;;;;13.30;4.87;;;;;;;13.76;68.44;101614.13;5061662;28;20048;-59
2021/12/06 11:19:43;;;;;;;13.47;3.57;;;;;;;13.80;68.27;101620.03;5062623;28;20040;-60
2021/12/06 11:22:15;;;;;;;9.60;4.07;;;;;;;13.83;68.38;101609.09;5066480;28;20170;-59
2021/12/06 11:24:48;;;;;;;11.30;3.20;;;;;;;13.83;68.59;101609.09;5054691;28;20045;-58
2021/12/06 11:27:20;;;;;;;10.27;3.70;;;;;;;13.72;69.10;101598.97;5054342;28;20072;-59
2021/12/06 11:29:54;;;;;;;6.90;2.30;;;;;;;13.68;69.08;101597.84;5056540;28;20073;-52
2021/12/06 11:32:23;;;;;;;9.27;2.67;;;;;;;13.72;69.12;101607.41;5073653;28;20462;-51
2021/12/06 11:34:58;;;;;;;9.95;2.83;;;;;;;13.71;69.18;101605.72;5065256;28;20057;-55
2021/12/06 11:37:30;;;;;;;7.73;2.37;;;;;;;13.63;69.41;101587.44;5064962;28;20041;-55
2021/12/06 11:40:12;;;;;;;6.03;1.50;;;;;;;13.50;69.93;101594.41;5065071;28;20408;-54
2021/12/06 11:43:03;;;;;;;5.90;1.93;;;;;;;13.36;70.57;101592.38;5060336;28;20087;-54